createdAt,value
2018-01-29T00:00:48.605Z,3.93
2018-01-29T00:03:16.142Z,3.43
2018-01-29T00:05:44.514Z,3.23
2018-01-29T00:08:12.086Z,3.13
2018-01-29T00:10:39.622Z,3.80
2018-01-29T00:13:07.183Z,3.90
2018-01-29T00:15:34.766Z,4.13
2018-01-29T00:18:02.316Z,4.20
2018-01-29T00:20:29.834Z,3.50
2018-01-29T00:22:57.390Z,3.97
2018-01-29T00:25:24.927Z,4.30
2018-01-29T00:27:52.475Z,3.67
2018-01-29T00:30:20.095Z,3.97
2018-01-29T00:32:47.615Z,3.57
2018-01-29T00:35:15.124Z,4.00
2018-01-29T00:37:42.649Z,4.70
2018-01-29T00:40:10.252Z,4.10
2018-01-29T00:42:38.568Z,3.93
2018-01-29T00:45:06.846Z,3.80
2018-01-29T00:47:34.398Z,3.70
2018-01-29T00:50:01.938Z,3.17
2018-01-29T00:52:30.222Z,3.33
2018-01-29T00:54:58.624Z,3.30
2018-01-29T00:57:26.154Z,3.70
2018-01-29T00:59:53.678Z,3.60
2018-01-29T01:02:21.225Z,3.30
2018-01-29T01:04:48.766Z,3.60
2018-01-29T01:07:17.042Z,3.40
2018-01-29T01:09:44.634Z,3.30
2018-01-29T01:12:12.169Z,3.83
2018-01-29T01:14:39.687Z,3.50
2018-01-29T01:17:07.200Z,3.50
2018-01-29T01:19:35.517Z,3.70
2018-01-29T01:22:03.804Z,4.00
2018-01-29T01:24:32.085Z,3.70
2018-01-29T01:26:59.637Z,2.90
2018-01-29T01:29:27.139Z,3.00
2018-01-29T01:31:54.645Z,2.83
2018-01-29T01:34:22.255Z,3.70
2018-01-29T01:36:50.521Z,5.20
2018-01-29T01:39:18.031Z,3.27
2018-01-29T01:41:46.373Z,3.40
2018-01-29T01:44:13.877Z,3.30
2018-01-29T01:46:41.401Z,2.60
2018-01-29T01:49:09.692Z,3.67
2018-01-29T01:51:37.966Z,3.20
2018-01-29T01:54:05.487Z,3.20
2018-01-29T01:56:33.818Z,3.57
2018-01-29T01:59:01.363Z,3.10
2018-01-29T02:01:28.882Z,2.80
2018-01-29T02:03:56.433Z,2.90
2018-01-29T02:06:24.814Z,3.43
2018-01-29T02:08:53.050Z,2.47
2018-01-29T02:11:20.595Z,2.80
2018-01-29T02:13:48.122Z,3.13
2018-01-29T02:16:15.692Z,3.07
2018-01-29T02:18:43.252Z,2.93
2018-01-29T02:21:10.758Z,3.10
2018-01-29T02:23:38.270Z,3.03
2018-01-29T02:26:05.824Z,3.13
2018-01-29T02:28:33.331Z,2.97
2018-01-29T02:31:00.861Z,3.50
2018-01-29T02:33:28.424Z,2.70
2018-01-29T02:35:56.738Z,3.20
2018-01-29T02:38:24.301Z,3.70
2018-01-29T02:40:52.626Z,3.77
2018-01-29T02:43:20.168Z,3.30
2018-01-29T02:45:47.681Z,3.20
2018-01-29T02:48:15.999Z,3.53
2018-01-29T02:50:43.585Z,3.00
2018-01-29T02:53:11.113Z,3.57
2018-01-29T02:55:38.681Z,3.70
2018-01-29T02:58:06.213Z,3.90
2018-01-29T03:00:34.504Z,3.20
2018-01-29T03:03:02.034Z,4.67
2018-01-29T03:05:29.542Z,3.20
2018-01-29T03:07:57.071Z,3.30
2018-01-29T03:10:25.439Z,3.43
2018-01-29T03:12:53.007Z,3.97
2018-01-29T03:15:20.517Z,3.37
2018-01-29T03:17:48.082Z,3.20
2018-01-29T03:20:15.624Z,2.93
2018-01-29T03:22:43.172Z,3.33
2018-01-29T03:25:10.703Z,2.87
2018-01-29T03:27:38.260Z,3.43
2018-01-29T03:30:06.716Z,2.80
2018-01-29T03:35:53.389Z,3.23
2018-01-29T03:38:21.675Z,2.83
2018-01-29T03:40:49.209Z,3.40
2018-01-29T03:43:17.531Z,3.70
2018-01-29T03:45:45.054Z,3.27
2018-01-29T03:48:12.683Z,3.27
2018-01-29T03:50:40.189Z,2.97
2018-01-29T03:53:07.716Z,3.30
2018-01-29T03:55:36.041Z,3.13
2018-01-29T03:58:04.309Z,4.60
2018-01-29T04:00:31.934Z,3.40
2018-01-29T04:03:00.236Z,3.27
2018-01-29T04:05:27.801Z,3.57
2018-01-29T04:07:56.089Z,3.70
2018-01-29T04:10:25.147Z,3.60
2018-01-29T04:12:53.435Z,3.67
2018-01-29T04:15:21.025Z,3.53
2018-01-29T04:17:49.303Z,3.73
2018-01-29T04:20:16.945Z,3.70
2018-01-29T04:22:44.488Z,4.17
2018-01-29T04:25:12.800Z,3.90
2018-01-29T04:27:41.242Z,3.63
2018-01-29T04:30:08.771Z,3.70
2018-01-29T04:32:36.358Z,3.70
2018-01-29T04:35:03.978Z,3.60
2018-01-29T04:37:32.275Z,3.83
2018-01-29T04:40:15.157Z,3.73
2018-01-29T04:42:42.709Z,4.03
2018-01-29T04:45:11.011Z,4.10
2018-01-29T04:47:39.300Z,4.00
2018-01-29T04:50:06.829Z,3.83
2018-01-29T04:52:34.336Z,4.20
2018-01-29T04:55:01.857Z,3.50
2018-01-29T04:57:29.401Z,4.03
2018-01-29T04:59:56.974Z,4.50
2018-01-29T05:02:24.636Z,4.40
2018-01-29T05:04:52.935Z,4.80
2018-01-29T05:07:21.214Z,5.60
2018-01-29T05:09:48.761Z,5.20
2018-01-29T05:12:16.274Z,4.90
2018-01-29T05:14:43.791Z,4.70
2018-01-29T05:17:11.328Z,4.93
2018-01-29T05:19:38.843Z,5.20
2018-01-29T05:22:06.377Z,5.40
2018-01-29T05:24:33.924Z,4.90
2018-01-29T05:27:12.989Z,5.70
2018-01-29T05:29:40.513Z,5.00
2018-01-29T05:32:08.040Z,5.90
2018-01-29T05:34:35.610Z,5.30
2018-01-29T05:40:07.575Z,5.83
2018-01-29T05:42:35.962Z,5.90
2018-01-29T05:45:03.477Z,7.13
2018-01-29T05:47:31.769Z,7.00
2018-01-29T05:50:00.078Z,6.80
2018-01-29T05:52:28.367Z,6.20
2018-01-29T05:54:56.677Z,5.83
2018-01-29T05:57:24.982Z,7.20
2018-01-29T05:59:53.349Z,7.27
2018-01-29T06:02:20.879Z,6.90
2018-01-29T06:04:48.410Z,6.30
2018-01-29T06:07:15.981Z,6.23
2018-01-29T06:09:43.494Z,6.70
2018-01-29T06:12:11.011Z,7.07
2018-01-29T06:14:39.306Z,6.77
2018-01-29T06:17:06.855Z,6.03
2018-01-29T06:19:34.437Z,5.53
2018-01-29T06:22:01.988Z,7.80
2018-01-29T06:24:29.527Z,6.30
2018-01-29T06:26:57.181Z,6.03
2018-01-29T06:29:24.757Z,5.43
2018-01-29T06:31:52.321Z,5.90
2018-01-29T06:34:19.865Z,7.07
2018-01-29T06:36:47.370Z,7.53
2018-01-29T06:39:15.715Z,6.83
2018-01-29T06:41:43.436Z,6.77
2018-01-29T06:44:10.972Z,7.57
2018-01-29T06:46:38.698Z,8.10
2018-01-29T06:49:06.213Z,8.07
2018-01-29T06:51:33.737Z,8.27
2018-01-29T06:54:01.290Z,9.10
2018-01-29T06:56:28.832Z,9.30
2018-01-29T06:58:56.345Z,9.63
2018-01-29T07:01:23.945Z,10.07
2018-01-29T07:03:52.262Z,10.90
2018-01-29T07:06:19.814Z,10.97
2018-01-29T07:08:47.374Z,10.50
2018-01-29T07:11:14.937Z,11.73
2018-01-29T07:13:42.501Z,11.43
2018-01-29T07:16:10.054Z,10.67
2018-01-29T07:18:38.445Z,11.47
2018-01-29T07:21:05.969Z,10.57
2018-01-29T07:23:34.357Z,11.73
2018-01-29T07:26:02.823Z,11.40
2018-01-29T07:28:31.133Z,11.07
2018-01-29T07:30:58.796Z,11.33
2018-01-29T07:33:27.079Z,12.20
2018-01-29T07:35:54.627Z,12.60
2018-01-29T07:38:22.341Z,12.00
2018-01-29T07:40:50.618Z,13.07
2018-01-29T07:43:18.942Z,12.00
2018-01-29T07:45:46.483Z,10.73
2018-01-29T07:48:14.022Z,10.73
2018-01-29T07:50:41.570Z,10.00
2018-01-29T07:53:09.116Z,11.53
2018-01-29T07:55:36.720Z,10.97
2018-01-29T07:58:04.334Z,12.37
2018-01-29T08:00:31.896Z,11.97
2018-01-29T08:02:59.631Z,11.87
2018-01-29T08:05:27.230Z,12.77
2018-01-29T08:07:54.792Z,12.00
2018-01-29T08:10:23.130Z,12.43
2018-01-29T08:12:50.730Z,12.63
2018-01-29T08:15:18.274Z,13.30
2018-01-29T08:17:46.586Z,14.00
2018-01-29T08:20:14.247Z,12.93
2018-01-29T08:22:41.796Z,12.30
2018-01-29T08:25:10.087Z,12.73
2018-01-29T08:27:37.622Z,12.80
2018-01-29T08:30:05.174Z,13.27
2018-01-29T08:32:32.732Z,12.50
2018-01-29T08:35:00.337Z,13.00
2018-01-29T08:37:27.896Z,12.57
2018-01-29T08:39:55.708Z,12.83
2018-01-29T08:42:23.271Z,13.47
2018-01-29T08:44:50.789Z,12.43
2018-01-29T08:47:18.463Z,12.93
2018-01-29T08:49:46.021Z,13.10
2018-01-29T08:52:14.349Z,12.00
2018-01-29T08:54:41.881Z,12.57
2018-01-29T08:57:09.440Z,13.37
2018-01-29T08:59:36.969Z,14.00
2018-01-29T09:02:04.631Z,13.10
2018-01-29T09:04:32.197Z,13.83
2018-01-29T09:06:59.756Z,13.53
2018-01-29T09:09:28.056Z,14.40
2018-01-29T09:11:56.375Z,13.43
2018-01-29T09:14:24.134Z,12.10
2018-01-29T09:16:51.678Z,13.10
2018-01-29T09:19:19.362Z,14.00
2018-01-29T09:21:46.882Z,12.17
2018-01-29T09:24:14.443Z,11.47
2018-01-29T09:26:42.855Z,11.50
2018-01-29T09:29:10.465Z,10.90
2018-01-29T09:31:38.007Z,11.63
2018-01-29T09:34:06.520Z,11.47
2018-01-29T09:36:34.057Z,10.67
2018-01-29T09:39:02.416Z,10.73
2018-01-29T09:41:29.945Z,10.57
2018-01-29T09:43:58.256Z,10.00
2018-01-29T09:46:25.810Z,9.60
2018-01-29T09:48:53.349Z,11.00
2018-01-29T09:51:20.890Z,10.53
2018-01-29T09:53:48.802Z,10.30
2018-01-29T09:56:17.112Z,11.60
2018-01-29T09:58:45.693Z,9.00
2018-01-29T10:01:13.251Z,10.27
2018-01-29T10:03:40.767Z,8.60
2018-01-29T10:06:08.314Z,9.00
2018-01-29T10:08:35.863Z,8.90
2018-01-29T10:11:03.565Z,8.47
2018-01-29T10:13:31.140Z,8.00
2018-01-29T10:15:58.683Z,8.40
2018-01-29T10:18:26.271Z,8.30
2018-01-29T10:20:53.809Z,6.90
2018-01-29T10:23:22.116Z,7.27
2018-01-29T10:25:49.695Z,7.37
2018-01-29T10:28:17.232Z,6.80
2018-01-29T10:30:44.783Z,7.03
2018-01-29T10:33:12.308Z,7.30
2018-01-29T10:35:40.622Z,7.87
2018-01-29T10:38:08.164Z,7.30
2018-01-29T10:40:36.450Z,6.87
2018-01-29T10:43:04.897Z,7.47
2018-01-29T10:45:32.451Z,7.33
2018-01-29T10:48:00.008Z,6.87
2018-01-29T10:50:27.541Z,6.57
2018-01-29T10:52:55.072Z,6.40
2018-01-29T10:55:22.651Z,7.40
2018-01-29T10:57:50.233Z,7.10
2018-01-29T11:00:17.840Z,7.27
2018-01-29T11:02:45.374Z,7.00
2018-01-29T11:05:12.914Z,6.23
2018-01-29T11:07:40.460Z,5.80
2018-01-29T11:10:07.991Z,5.77
2018-01-29T11:12:36.287Z,6.10
2018-01-29T11:15:04.780Z,6.03
2018-01-29T11:17:33.228Z,7.17
2018-01-29T11:20:00.732Z,5.23
2018-01-29T11:22:28.328Z,6.00
2018-01-29T11:24:56.672Z,6.10
2018-01-29T11:27:24.306Z,4.77
2018-01-29T11:29:52.656Z,4.80
2018-01-29T11:32:21.285Z,5.70
2018-01-29T11:34:48.818Z,4.70
2018-01-29T11:37:16.472Z,5.87
2018-01-29T11:39:44.190Z,5.07
2018-01-29T11:42:11.772Z,5.33
2018-01-29T11:44:39.312Z,4.90
2018-01-29T11:47:07.631Z,4.70
2018-01-29T11:49:35.162Z,4.50
2018-01-29T11:52:02.946Z,4.50
2018-01-29T11:54:30.554Z,4.43
2018-01-29T11:56:58.085Z,5.00
2018-01-29T11:59:25.930Z,4.80
2018-01-29T12:01:53.473Z,4.47
2018-01-29T12:04:20.981Z,4.13
2018-01-29T12:06:48.624Z,3.73
2018-01-29T12:09:16.961Z,5.10
2018-01-29T12:11:44.611Z,4.63
2018-01-29T12:14:12.191Z,6.60
2018-01-29T12:16:39.732Z,4.87
2018-01-29T12:19:07.280Z,3.90
2018-01-29T12:21:35.557Z,4.10
2018-01-29T12:24:03.075Z,3.93
2018-01-29T12:26:31.401Z,3.77
2018-01-29T12:28:58.950Z,3.57
2018-01-29T12:31:26.470Z,3.80
2018-01-29T12:33:54.189Z,3.97
2018-01-29T12:36:21.711Z,3.87
2018-01-29T12:38:50.146Z,4.73
2018-01-29T12:41:17.733Z,4.00
2018-01-29T12:43:45.394Z,3.27
2018-01-29T12:46:12.945Z,3.50
2018-01-29T12:48:40.495Z,4.00
2018-01-29T12:51:08.853Z,3.10
2018-01-29T12:53:36.424Z,4.60
2018-01-29T12:56:04.166Z,3.00
2018-01-29T12:58:31.779Z,2.67
2018-01-29T13:01:00.188Z,2.60
2018-01-29T13:03:28.504Z,2.50
2018-01-29T13:05:56.118Z,2.83
2018-01-29T13:08:23.670Z,2.20
2018-01-29T13:10:51.237Z,2.60
2018-01-29T13:13:19.553Z,2.50
2018-01-29T13:15:47.124Z,5.17
2018-01-29T13:18:15.495Z,3.27
2018-01-29T13:20:43.065Z,2.80
2018-01-29T13:23:10.653Z,3.13
2018-01-29T13:25:38.181Z,2.80
2018-01-29T13:28:05.977Z,3.10
2018-01-29T13:30:34.265Z,4.30
2018-01-29T13:33:01.802Z,4.20
2018-01-29T13:35:29.379Z,3.40
2018-01-29T13:37:56.946Z,3.00
2018-01-29T13:40:25.259Z,2.47
2018-01-29T13:42:52.841Z,2.90
2018-01-29T13:45:21.184Z,2.50
2018-01-29T13:47:48.728Z,3.10
2018-01-29T13:50:17.021Z,2.40
2018-01-29T13:52:44.687Z,2.70
2018-01-29T13:55:12.250Z,3.13
2018-01-29T13:57:40.192Z,2.70
2018-01-29T14:00:07.873Z,2.70
2018-01-29T14:02:35.399Z,1.97
2018-01-29T14:05:02.947Z,2.37
2018-01-29T14:07:30.501Z,2.20
2018-01-29T14:09:58.009Z,2.90
2018-01-29T14:12:25.661Z,2.37
2018-01-29T14:14:53.217Z,2.23
2018-01-29T14:17:21.529Z,1.90
2018-01-29T14:19:49.075Z,2.40
2018-01-29T14:22:16.819Z,2.90
2018-01-29T14:24:44.438Z,2.30
2018-01-29T14:27:12.134Z,2.80
2018-01-29T14:29:39.672Z,2.50
2018-01-29T14:32:07.203Z,2.90
2018-01-29T14:34:34.790Z,2.83
2018-01-29T14:37:02.324Z,3.90
2018-01-29T14:39:30.780Z,3.27
2018-01-29T14:41:58.367Z,3.20
2018-01-29T14:44:26.042Z,2.30
2018-01-29T14:46:53.584Z,2.80
2018-01-29T14:49:21.905Z,2.67
2018-01-29T14:51:50.333Z,2.97
2018-01-29T14:54:18.045Z,3.00
2018-01-29T14:56:45.641Z,3.00
2018-01-29T14:59:13.170Z,3.90
2018-01-29T15:01:41.494Z,4.00
2018-01-29T15:04:09.042Z,3.80
2018-01-29T15:06:36.686Z,2.90
2018-01-29T15:09:04.234Z,2.90
2018-01-29T15:11:32.532Z,2.90
2018-01-29T15:14:00.861Z,2.80
2018-01-29T15:16:28.463Z,2.80
2018-01-29T15:18:55.999Z,2.90
2018-01-29T15:21:24.322Z,3.27
2018-01-29T15:23:51.972Z,3.37
2018-01-29T15:26:19.634Z,3.10
2018-01-29T15:28:47.168Z,3.50
2018-01-29T15:31:14.740Z,3.60
2018-01-29T15:33:42.426Z,4.00
2018-01-29T15:36:10.836Z,4.00
2018-01-29T15:38:39.129Z,3.33
2018-01-29T15:41:07.438Z,3.90
2018-01-29T15:43:35.758Z,3.50
2018-01-29T15:46:03.423Z,3.80
2018-01-29T15:48:31.125Z,3.53
2018-01-29T15:50:58.640Z,3.70
2018-01-29T15:53:26.285Z,3.90
2018-01-29T15:55:54.591Z,4.40
2018-01-29T15:58:22.948Z,4.27
2018-01-29T16:00:50.568Z,3.70
2018-01-29T16:03:18.807Z,3.60
2018-01-29T16:05:46.389Z,3.80
2018-01-29T16:08:14.008Z,4.33
2018-01-29T16:10:42.536Z,6.00
2018-01-29T16:13:10.075Z,4.20
2018-01-29T16:15:37.604Z,3.90
2018-01-29T16:18:05.159Z,3.93
2018-01-29T16:20:33.452Z,4.10
2018-01-29T16:23:00.984Z,3.80
2018-01-29T16:25:28.532Z,4.33
2018-01-29T16:27:56.859Z,4.60
2018-01-29T16:30:24.408Z,3.60
2018-01-29T16:32:52.069Z,4.93
2018-01-29T16:35:19.619Z,3.93
2018-01-29T16:37:47.255Z,3.90
2018-01-29T16:40:14.825Z,3.90
2018-01-29T16:42:42.349Z,4.27
2018-01-29T16:45:10.683Z,4.87
2018-01-29T16:47:38.203Z,4.60
2018-01-29T16:50:06.064Z,4.20
2018-01-29T16:52:33.606Z,3.60
2018-01-29T16:55:01.126Z,4.07
2018-01-29T16:57:29.425Z,4.47
2018-01-29T16:59:56.978Z,3.80
2018-01-29T17:02:24.570Z,3.90
2018-01-29T17:04:52.192Z,5.00
2018-01-29T17:07:20.491Z,4.27
2018-01-29T17:09:48.092Z,4.17
2018-01-29T17:12:15.719Z,5.57
2018-01-29T17:14:44.296Z,4.57
2018-01-29T17:17:11.822Z,5.00
2018-01-29T17:19:39.569Z,6.27
2018-01-29T17:22:07.869Z,5.40
2018-01-29T17:24:39.135Z,6.33
2018-01-29T17:27:08.064Z,4.67
2018-01-29T17:29:36.371Z,4.77
2018-01-29T17:32:04.102Z,5.33
2018-01-29T17:34:31.705Z,5.73
2018-01-29T17:36:59.260Z,6.43
2018-01-29T17:39:26.783Z,6.47
2018-01-29T17:41:54.453Z,6.20
2018-01-29T17:44:22.849Z,6.70
2018-01-29T17:46:50.594Z,6.87
2018-01-29T17:49:18.918Z,6.70
2018-01-29T17:51:46.479Z,7.00
2018-01-29T17:54:14.021Z,6.77
2018-01-29T17:56:41.619Z,6.43
2018-01-29T17:59:09.142Z,7.37
2018-01-29T18:01:36.705Z,7.90
2018-01-29T18:04:04.409Z,6.97
2018-01-29T18:06:32.044Z,7.40
2018-01-29T18:08:59.641Z,7.73
2018-01-29T18:11:27.930Z,8.93
2018-01-29T18:13:55.465Z,7.93
2018-01-29T18:16:23.020Z,8.30
2018-01-29T18:18:50.578Z,8.07
2018-01-29T18:21:18.149Z,7.23
2018-01-29T18:23:45.737Z,8.17
2018-01-29T18:26:13.289Z,8.00
2018-01-29T18:28:40.842Z,8.60
2018-01-29T18:31:09.162Z,9.13
2018-01-29T18:33:36.720Z,8.50
2018-01-29T18:36:04.296Z,10.33
2018-01-29T18:38:31.919Z,10.43
2018-01-29T18:40:59.461Z,10.47
2018-01-29T18:43:26.985Z,10.30
2018-01-29T18:45:54.548Z,9.50
2018-01-29T18:48:22.106Z,10.67
2018-01-29T18:50:49.657Z,10.63
2018-01-29T18:53:17.397Z,11.60
2018-01-29T18:55:45.133Z,11.37
2018-01-29T18:58:12.673Z,9.90
2018-01-29T19:00:41.026Z,12.00
2018-01-29T19:03:08.612Z,12.43
2018-01-29T19:05:36.160Z,10.90
2018-01-29T19:08:04.495Z,11.50
2018-01-29T19:10:32.066Z,11.53
2018-01-29T19:12:59.701Z,12.10
2018-01-29T19:15:27.235Z,12.33
2018-01-29T19:17:54.780Z,12.13
2018-01-29T19:20:22.314Z,13.47
2018-01-29T19:22:49.954Z,12.27
2018-01-29T19:25:17.486Z,12.27
2018-01-29T19:27:45.258Z,12.10
2018-01-29T19:30:13.563Z,12.27
2018-01-29T19:32:41.130Z,12.43
2018-01-29T19:35:09.434Z,13.80
2018-01-29T19:37:37.725Z,13.33
2018-01-29T19:40:05.344Z,11.10
2018-01-29T19:42:32.866Z,10.10
2018-01-29T19:45:00.478Z,10.40
2018-01-29T19:47:28.029Z,10.70
2018-01-29T19:49:55.572Z,10.00
2018-01-29T19:52:23.108Z,9.70
2018-01-29T19:54:50.768Z,10.00
2018-01-29T19:57:19.090Z,9.90
2018-01-29T19:59:46.637Z,9.17
2018-01-29T20:02:14.216Z,9.80
2018-01-29T20:04:41.797Z,10.57
2018-01-29T20:07:09.350Z,9.60
2018-01-29T20:09:36.888Z,10.03
2018-01-29T20:12:04.499Z,10.10
2018-01-29T20:14:32.796Z,10.37
2018-01-29T20:17:01.113Z,9.60
2018-01-29T20:19:28.668Z,10.50
2018-01-29T20:21:57.152Z,9.50
2018-01-29T20:24:24.792Z,10.03
2018-01-29T20:26:53.110Z,10.80
2018-01-29T20:29:21.389Z,11.00
2018-01-29T20:31:48.916Z,10.40
2018-01-29T20:34:16.468Z,11.07
2018-01-29T20:36:44.780Z,10.57
2018-01-29T20:39:12.335Z,11.87
2018-01-29T20:41:39.930Z,10.70
2018-01-29T20:44:07.471Z,11.50
2018-01-29T20:46:35.018Z,11.27
2018-01-29T20:49:02.550Z,11.57
2018-01-29T20:51:30.944Z,11.57
2018-01-29T20:53:58.501Z,10.90
2018-01-29T20:56:26.932Z,11.30
2018-01-29T20:58:54.501Z,11.13
2018-01-29T21:01:22.023Z,11.00
2018-01-29T21:03:49.545Z,10.10
2018-01-29T21:06:17.862Z,11.63
2018-01-29T21:08:46.214Z,10.30
2018-01-29T21:11:13.754Z,10.07
2018-01-29T21:13:42.069Z,9.30
2018-01-29T21:16:09.713Z,9.40
2018-01-29T21:18:37.242Z,9.23
2018-01-29T21:21:05.571Z,8.27
2018-01-29T21:23:33.204Z,6.27
2018-01-29T21:26:00.865Z,6.70
2018-01-29T21:28:28.382Z,7.17
2018-01-29T21:30:56.711Z,6.70
2018-01-29T21:33:25.062Z,6.80
2018-01-29T21:35:53.384Z,6.13
2018-01-29T21:38:21.686Z,5.53
2018-01-29T21:40:49.225Z,5.13
2018-01-29T21:43:16.789Z,5.50
2018-01-29T21:45:44.321Z,5.60
2018-01-29T21:48:12.702Z,5.13
2018-01-29T21:50:40.247Z,5.87
2018-01-29T21:53:07.773Z,4.70
2018-01-29T21:55:36.059Z,5.17
2018-01-29T21:58:03.667Z,4.60
2018-01-29T22:00:31.271Z,4.53
2018-01-29T22:03:00.204Z,4.83
2018-01-29T22:05:27.715Z,4.43
2018-01-29T22:07:56.018Z,4.00
2018-01-29T22:10:23.528Z,3.90
2018-01-29T22:12:51.823Z,4.60
2018-01-29T22:15:19.362Z,3.60
2018-01-29T22:17:47.672Z,4.10
2018-01-29T22:20:15.394Z,4.20
2018-01-29T22:22:42.918Z,3.87
2018-01-29T22:25:10.441Z,7.37
2018-01-29T22:27:37.988Z,3.27
2018-01-29T22:30:06.301Z,3.87
2018-01-29T22:32:33.928Z,3.37
2018-01-29T22:35:01.464Z,3.70
2018-01-29T22:37:29.768Z,3.33
2018-01-29T22:39:57.323Z,3.27
2018-01-29T22:42:25.149Z,4.13
2018-01-29T22:44:54.259Z,3.73
2018-01-29T22:47:22.968Z,3.60
2018-01-29T22:49:52.496Z,3.73
2018-01-29T22:52:20.291Z,3.97
2018-01-29T22:54:48.949Z,6.33
2018-01-29T22:57:17.783Z,4.27
2018-01-29T22:59:46.573Z,4.47
2018-01-29T23:02:14.446Z,3.17
2018-01-29T23:04:41.979Z,3.97
2018-01-29T23:07:09.530Z,3.53
2018-01-29T23:09:38.369Z,3.90
2018-01-29T23:12:05.910Z,3.07
2018-01-29T23:14:33.476Z,3.67
2018-01-29T23:17:01.756Z,2.90
2018-01-29T23:19:29.281Z,2.97
2018-01-29T23:21:56.813Z,2.37
2018-01-29T23:24:24.327Z,2.97
2018-01-29T23:26:52.637Z,2.57
2018-01-29T23:29:20.982Z,2.63
2018-01-29T23:31:48.527Z,2.07
2018-01-29T23:34:16.815Z,2.03
2018-01-29T23:36:44.418Z,1.80
2018-01-29T23:39:12.753Z,1.60
2018-01-29T23:41:40.284Z,1.80
2018-01-29T23:44:08.619Z,2.23
2018-01-29T23:46:36.899Z,2.17
2018-01-29T23:49:04.437Z,1.30
2018-01-29T23:51:32.035Z,1.83
2018-01-29T23:53:59.585Z,1.50
2018-01-29T23:56:27.268Z,1.73
2018-01-29T23:58:55.571Z,1.03
